sensor_id;sensor_type;location;lat;lon;timestamp;P1;durP1;ratioP1;P2;durP2;ratioP2
31348;SDS011;17976;48.480;11.946;2023-06-10T06:59:32;10.93;;;7.63;;
31348;SDS011;17976;48.480;11.946;2023-06-10T07:01:58;11.95;;;8.02;;
31348;SDS011;17976;48.480;11.946;2023-06-10T07:04:24;13.50;;;8.35;;
31348;SDS011;17976;48.480;11.946;2023-06-10T07:06:50;10.63;;;6.97;;
31348;SDS011;17976;48.480;11.946;2023-06-10T07:09:16;8.25;;;6.38;;
31348;SDS011;17976;48.480;11.946;2023-06-10T07:11:42;11.27;;;7.40;;
31348;SDS011;17976;48.480;11.946;2023-06-10T07:14:08;9.45;;;7.18;;
31348;SDS011;17976;48.480;11.946;2023-06-10T07:16:34;8.30;;;6.80;;
31348;SDS011;17976;48.480;11.946;2023-06-10T07:19:00;9.23;;;5.97;;
31348;SDS011;17976;48.480;11.946;2023-06-10T07:21:26;7.47;;;6.18;;
31348;SDS011;17976;48.480;11.946;2023-06-10T07:23:53;6.80;;;5.25;;
31348;SDS011;17976;48.480;11.946;2023-06-10T07:26:21;8.20;;;5.55;;
31348;SDS011;17976;48.480;11.946;2023-06-10T07:28:47;6.75;;;5.10;;
31348;SDS011;17976;48.480;11.946;2023-06-10T07:31:13;6.60;;;5.10;;
31348;SDS011;17976;48.480;11.946;2023-06-10T07:33:39;7.00;;;5.20;;
31348;SDS011;17976;48.480;11.946;2023-06-10T07:36:05;6.72;;;5.35;;
31348;SDS011;17976;48.480;11.946;2023-06-10T07:38:31;7.00;;;5.05;;
31348;SDS011;17976;48.480;11.946;2023-06-10T07:40:57;5.70;;;4.78;;
31348;SDS011;17976;48.480;11.946;2023-06-10T07:43:23;5.90;;;4.85;;
31348;SDS011;17976;48.480;11.946;2023-06-10T07:45:49;6.55;;;5.13;;
31348;SDS011;17976;48.480;11.946;2023-06-10T07:48:15;5.45;;;4.32;;
31348;SDS011;17976;48.480;11.946;2023-06-10T07:50:41;8.05;;;4.70;;
31348;SDS011;17976;48.480;11.946;2023-06-10T07:53:07;7.07;;;4.82;;
31348;SDS011;17976;48.480;11.946;2023-06-10T07:55:33;5.93;;;4.65;;
31348;SDS011;17976;48.480;11.946;2023-06-10T07:57:59;5.18;;;4.30;;
31348;SDS011;17976;48.480;11.946;2023-06-10T08:00:25;5.90;;;4.40;;
31348;SDS011;17976;48.480;11.946;2023-06-10T08:02:51;8.07;;;4.85;;
31348;SDS011;17976;48.480;11.946;2023-06-10T08:05:17;5.95;;;4.70;;
31348;SDS011;17976;48.480;11.946;2023-06-10T08:07:44;5.85;;;4.70;;
31348;SDS011;17976;48.480;11.946;2023-06-10T08:10:10;5.75;;;4.53;;
31348;SDS011;17976;48.480;11.946;2023-06-10T08:12:36;7.03;;;4.13;;
31348;SDS011;17976;48.480;11.946;2023-06-10T08:15:02;5.10;;;4.03;;
31348;SDS011;17976;48.480;11.946;2023-06-10T08:17:29;7.57;;;4.90;;
31348;SDS011;17976;48.480;11.946;2023-06-10T08:19:55;6.75;;;4.65;;
31348;SDS011;17976;48.480;11.946;2023-06-10T08:22:21;5.85;;;4.80;;
31348;SDS011;17976;48.480;11.946;2023-06-10T08:24:47;7.10;;;4.85;;
31348;SDS011;17976;48.480;11.946;2023-06-10T08:27:13;5.63;;;4.38;;
31348;SDS011;17976;48.480;11.946;2023-06-10T08:29:39;5.63;;;4.60;;
31348;SDS011;17976;48.480;11.946;2023-06-10T08:32:05;6.82;;;4.28;;
31348;SDS011;17976;48.480;11.946;2023-06-10T08:34:35;7.80;;;4.82;;
31348;SDS011;17976;48.480;11.946;2023-06-10T08:37:01;5.97;;;4.93;;
31348;SDS011;17976;48.480;11.946;2023-06-10T08:39:27;6.40;;;4.80;;
31348;SDS011;17976;48.480;11.946;2023-06-10T08:44:29;6.13;;;4.55;;
31348;SDS011;17976;48.480;11.946;2023-06-10T08:46:55;5.85;;;5.03;;
31348;SDS011;17976;48.480;11.946;2023-06-10T08:49:21;7.25;;;5.30;;
31348;SDS011;17976;48.480;11.946;2023-06-10T08:51:49;6.65;;;4.53;;
31348;SDS011;17976;48.480;11.946;2023-06-10T08:54:22;7.20;;;4.43;;
31348;SDS011;17976;48.480;11.946;2023-06-10T08:56:50;8.15;;;5.28;;
31348;SDS011;17976;48.480;11.946;2023-06-10T08:59:16;8.05;;;6.15;;
31348;SDS011;17976;48.480;11.946;2023-06-10T09:01:43;6.15;;;4.72;;
31348;SDS011;17976;48.480;11.946;2023-06-10T09:04:09;5.25;;;4.47;;
31348;SDS011;17976;48.480;11.946;2023-06-10T09:06:35;6.35;;;5.03;;
31348;SDS011;17976;48.480;11.946;2023-06-10T09:09:01;5.20;;;4.55;;
31348;SDS011;17976;48.480;11.946;2023-06-10T09:11:28;6.03;;;4.63;;
31348;SDS011;17976;48.480;11.946;2023-06-10T09:13:54;5.07;;;4.57;;
31348;SDS011;17976;48.480;11.946;2023-06-10T09:16:26;7.78;;;5.30;;
31348;SDS011;17976;48.480;11.946;2023-06-10T09:18:52;4.40;;;4.00;;
31348;SDS011;17976;48.480;11.946;2023-06-10T09:21:23;5.68;;;4.32;;
31348;SDS011;17976;48.480;11.946;2023-06-10T09:23:50;5.22;;;4.72;;
31348;SDS011;17976;48.480;11.946;2023-06-10T09:26:16;7.15;;;4.10;;
31348;SDS011;17976;48.480;11.946;2023-06-10T09:28:48;4.38;;;3.95;;
31348;SDS011;17976;48.480;11.946;2023-06-10T09:31:17;6.75;;;4.78;;
31348;SDS011;17976;48.480;11.946;2023-06-10T09:33:46;5.43;;;4.43;;
31348;SDS011;17976;48.480;11.946;2023-06-10T09:36:20;5.90;;;4.00;;
31348;SDS011;17976;48.480;11.946;2023-06-10T09:38:46;5.55;;;4.22;;
31348;SDS011;17976;48.480;11.946;2023-06-10T09:41:15;5.85;;;4.70;;
31348;SDS011;17976;48.480;11.946;2023-06-10T09:43:43;7.57;;;4.47;;
31348;SDS011;17976;48.480;11.946;2023-06-10T09:46:51;5.38;;;4.43;;
31348;SDS011;17976;48.480;11.946;2023-06-10T09:48:58;5.35;;;4.18;;
31348;SDS011;17976;48.480;11.946;2023-06-10T09:51:25;4.72;;;4.30;;
31348;SDS011;17976;48.480;11.946;2023-06-10T09:53:51;6.55;;;4.70;;
31348;SDS011;17976;48.480;11.946;2023-06-10T09:56:17;5.55;;;3.95;;
31348;SDS011;17976;48.480;11.946;2023-06-10T09:58:44;5.85;;;4.28;;
31348;SDS011;17976;48.480;11.946;2023-06-10T10:01:11;4.75;;;3.88;;
31348;SDS011;17976;48.480;11.946;2023-06-10T10:03:44;4.72;;;4.10;;
31348;SDS011;17976;48.480;11.946;2023-06-10T10:06:11;5.38;;;4.53;;
31348;SDS011;17976;48.480;11.946;2023-06-10T10:08:37;5.00;;;3.97;;
31348;SDS011;17976;48.480;11.946;2023-06-10T10:11:03;4.32;;;3.88;;
31348;SDS011;17976;48.480;11.946;2023-06-10T10:13:29;5.65;;;4.13;;
31348;SDS011;17976;48.480;11.946;2023-06-10T10:15:57;4.88;;;4.20;;
31348;SDS011;17976;48.480;11.946;2023-06-10T10:18:25;5.07;;;4.07;;
31348;SDS011;17976;48.480;11.946;2023-06-10T10:20:55;5.03;;;4.13;;
31348;SDS011;17976;48.480;11.946;2023-06-10T10:23:37;5.43;;;4.28;;
31348;SDS011;17976;48.480;11.946;2023-06-10T10:26:07;5.28;;;4.60;;
31348;SDS011;17976;48.480;11.946;2023-06-10T10:28:44;4.80;;;4.30;;
31348;SDS011;17976;48.480;11.946;2023-06-10T10:31:10;5.38;;;4.20;;
31348;SDS011;17976;48.480;11.946;2023-06-10T10:33:40;7.93;;;4.53;;
31348;SDS011;17976;48.480;11.946;2023-06-10T10:36:08;6.05;;;3.95;;
31348;SDS011;17976;48.480;11.946;2023-06-10T10:38:34;4.85;;;4.07;;
31348;SDS011;17976;48.480;11.946;2023-06-10T10:41:00;4.15;;;3.58;;
31348;SDS011;17976;48.480;11.946;2023-06-10T10:43:27;4.95;;;3.92;;
31348;SDS011;17976;48.480;11.946;2023-06-10T10:45:57;4.30;;;3.83;;
31348;SDS011;17976;48.480;11.946;2023-06-10T10:48:25;4.85;;;3.92;;
31348;SDS011;17976;48.480;11.946;2023-06-10T10:50:57;3.90;;;3.38;;
31348;SDS011;17976;48.480;11.946;2023-06-10T10:53:23;3.58;;;3.25;;
31348;SDS011;17976;48.480;11.946;2023-06-10T10:56:06;4.10;;;3.70;;
31348;SDS011;17976;48.480;11.946;2023-06-10T10:58:33;5.45;;;3.45;;
31348;SDS011;17976;48.480;11.946;2023-06-10T11:00:59;4.53;;;3.72;;
31348;SDS011;17976;48.480;11.946;2023-06-10T11:03:28;3.60;;;3.20;;
31348;SDS011;17976;48.480;11.946;2023-06-10T11:05:56;5.20;;;3.58;;
31348;SDS011;17976;48.480;11.946;2023-06-10T11:10:54;4.10;;;3.50;;
31348;SDS011;17976;48.480;11.946;2023-06-10T11:13:21;6.75;;;3.50;;
31348;SDS011;17976;48.480;11.946;2023-06-10T11:15:50;4.95;;;3.05;;
31348;SDS011;17976;48.480;11.946;2023-06-10T11:18:20;3.55;;;3.08;;
31348;SDS011;17976;48.480;11.946;2023-06-10T11:33:52;4.05;;;3.38;;
31348;SDS011;17976;48.480;11.946;2023-06-10T11:36:18;5.32;;;4.50;;
31348;SDS011;17976;48.480;11.946;2023-06-10T11:38:44;6.22;;;4.03;;
31348;SDS011;17976;48.480;11.946;2023-06-10T11:41:17;4.28;;;3.88;;
31348;SDS011;17976;48.480;11.946;2023-06-10T11:43:46;5.13;;;4.28;;
31348;SDS011;17976;48.480;11.946;2023-06-10T11:46:12;10.05;;;4.15;;
31348;SDS011;17976;48.480;11.946;2023-06-10T11:48:38;5.28;;;3.63;;
31348;SDS011;17976;48.480;11.946;2023-06-10T11:51:07;4.57;;;3.90;;
31348;SDS011;17976;48.480;11.946;2023-06-10T11:53:33;4.30;;;3.90;;
31348;SDS011;17976;48.480;11.946;2023-06-10T11:55:59;5.88;;;3.78;;
31348;SDS011;17976;48.480;11.946;2023-06-10T11:58:25;4.90;;;4.40;;
31348;SDS011;17976;48.480;11.946;2023-06-10T12:00:52;5.35;;;4.30;;
31348;SDS011;17976;48.480;11.946;2023-06-10T12:03:19;5.95;;;4.43;;
31348;SDS011;17976;48.480;11.946;2023-06-10T12:05:57;6.70;;;4.22;;
31348;SDS011;17976;48.480;11.946;2023-06-10T12:08:23;6.28;;;4.53;;
31348;SDS011;17976;48.480;11.946;2023-06-10T12:10:49;5.50;;;4.25;;
31348;SDS011;17976;48.480;11.946;2023-06-10T12:13:15;5.88;;;4.63;;
31348;SDS011;17976;48.480;11.946;2023-06-10T12:15:44;8.88;;;4.68;;
31348;SDS011;17976;48.480;11.946;2023-06-10T12:18:17;5.20;;;4.32;;
31348;SDS011;17976;48.480;11.946;2023-06-10T12:20:43;4.30;;;3.87;;
31348;SDS011;17976;48.480;11.946;2023-06-10T12:23:10;4.43;;;3.67;;
31348;SDS011;17976;48.480;11.946;2023-06-10T12:25:36;4.65;;;3.72;;
31348;SDS011;17976;48.480;11.946;2023-06-10T12:28:03;3.55;;;3.20;;
31348;SDS011;17976;48.480;11.946;2023-06-10T12:30:29;4.25;;;3.40;;
31348;SDS011;17976;48.480;11.946;2023-06-10T12:32:56;4.65;;;3.60;;
31348;SDS011;17976;48.480;11.946;2023-06-10T12:35:22;3.83;;;3.40;;
31348;SDS011;17976;48.480;11.946;2023-06-10T12:40:26;5.20;;;3.70;;
31348;SDS011;17976;48.480;11.946;2023-06-10T12:42:53;4.32;;;3.40;;
31348;SDS011;17976;48.480;11.946;2023-06-10T12:45:33;4.10;;;3.00;;
31348;SDS011;17976;48.480;11.946;2023-06-10T12:48:18;4.05;;;3.15;;
31348;SDS011;17976;48.480;11.946;2023-06-10T12:50:46;3.25;;;2.90;;
31348;SDS011;17976;48.480;11.946;2023-06-10T12:53:12;3.58;;;3.05;;
31348;SDS011;17976;48.480;11.946;2023-06-10T12:55:38;3.50;;;3.20;;
31348;SDS011;17976;48.480;11.946;2023-06-10T12:58:04;5.70;;;3.42;;
31348;SDS011;17976;48.480;11.946;2023-06-10T13:00:31;3.55;;;2.90;;
31348;SDS011;17976;48.480;11.946;2023-06-10T13:02:57;3.00;;;2.67;;
31348;SDS011;17976;48.480;11.946;2023-06-10T13:05:25;3.40;;;2.85;;
31348;SDS011;17976;48.480;11.946;2023-06-10T13:07:50;6.38;;;3.42;;
31348;SDS011;17976;48.480;11.946;2023-06-10T13:10:17;7.88;;;3.42;;
31348;SDS011;17976;48.480;11.946;2023-06-10T13:12:43;4.07;;;3.10;;
31348;SDS011;17976;48.480;11.946;2023-06-10T13:15:10;2.63;;;2.40;;
31348;SDS011;17976;48.480;11.946;2023-06-10T13:17:36;4.03;;;2.67;;
31348;SDS011;17976;48.480;11.946;2023-06-10T13:20:03;3.65;;;3.05;;
31348;SDS011;17976;48.480;11.946;2023-06-10T13:22:32;4.15;;;3.33;;
31348;SDS011;17976;48.480;11.946;2023-06-10T13:24:59;4.57;;;3.65;;
31348;SDS011;17976;48.480;11.946;2023-06-10T13:27:25;3.90;;;3.47;;
31348;SDS011;17976;48.480;11.946;2023-06-10T13:29:52;3.90;;;3.40;;
31348;SDS011;17976;48.480;11.946;2023-06-10T13:32:18;4.60;;;3.53;;
31348;SDS011;17976;48.480;11.946;2023-06-10T13:34:44;4.03;;;3.63;;
31348;SDS011;17976;48.480;11.946;2023-06-10T13:37:10;3.80;;;3.40;;
31348;SDS011;17976;48.480;11.946;2023-06-10T13:39:37;3.83;;;3.33;;
31348;SDS011;17976;48.480;11.946;2023-06-10T13:42:03;4.95;;;3.50;;
31348;SDS011;17976;48.480;11.946;2023-06-10T13:44:29;4.47;;;3.95;;
31348;SDS011;17976;48.480;11.946;2023-06-10T13:46:58;4.50;;;3.95;;
31348;SDS011;17976;48.480;11.946;2023-06-10T13:49:24;4.55;;;3.70;;
31348;SDS011;17976;48.480;11.946;2023-06-10T13:51:50;5.53;;;3.50;;
31348;SDS011;17976;48.480;11.946;2023-06-10T13:54:16;3.50;;;3.20;;
31348;SDS011;17976;48.480;11.946;2023-06-10T13:56:42;3.60;;;3.05;;
31348;SDS011;17976;48.480;11.946;2023-06-10T13:59:08;6.13;;;3.47;;
31348;SDS011;17976;48.480;11.946;2023-06-10T14:01:34;3.63;;;3.30;;
31348;SDS011;17976;48.480;11.946;2023-06-10T14:04:00;5.65;;;4.00;;
31348;SDS011;17976;48.480;11.946;2023-06-10T14:06:26;4.93;;;3.85;;
31348;SDS011;17976;48.480;11.946;2023-06-10T14:08:52;4.72;;;3.47;;
31348;SDS011;17976;48.480;11.946;2023-06-10T14:11:19;3.70;;;3.40;;
31348;SDS011;17976;48.480;11.946;2023-06-10T14:13:46;3.90;;;3.50;;
31348;SDS011;17976;48.480;11.946;2023-06-10T14:16:12;4.65;;;3.30;;
31348;SDS011;17976;48.480;11.946;2023-06-10T14:18:37;3.65;;;2.83;;
31348;SDS011;17976;48.480;11.946;2023-06-10T14:21:03;3.88;;;2.97;;
31348;SDS011;17976;48.480;11.946;2023-06-10T14:23:29;4.53;;;2.83;;
31348;SDS011;17976;48.480;11.946;2023-06-10T14:25:55;3.97;;;2.90;;
31348;SDS011;17976;48.480;11.946;2023-06-10T14:28:21;3.78;;;3.00;;
31348;SDS011;17976;48.480;11.946;2023-06-10T14:30:49;3.70;;;2.97;;
31348;SDS011;17976;48.480;11.946;2023-06-10T14:33:15;4.80;;;3.80;;
31348;SDS011;17976;48.480;11.946;2023-06-10T14:35:41;3.17;;;2.70;;
31348;SDS011;17976;48.480;11.946;2023-06-10T14:38:08;3.53;;;2.20;;
31348;SDS011;17976;48.480;11.946;2023-06-10T14:40:33;2.53;;;2.10;;
31348;SDS011;17976;48.480;11.946;2023-06-10T14:42:59;4.85;;;2.60;;
31348;SDS011;17976;48.480;11.946;2023-06-10T14:45:28;2.03;;;1.70;;
31348;SDS011;17976;48.480;11.946;2023-06-10T14:47:54;2.08;;;1.70;;
31348;SDS011;17976;48.480;11.946;2023-06-10T14:50:20;2.42;;;1.95;;
31348;SDS011;17976;48.480;11.946;2023-06-10T14:52:47;2.42;;;2.00;;
31348;SDS011;17976;48.480;11.946;2023-06-10T14:55:13;2.47;;;2.28;;
31348;SDS011;17976;48.480;11.946;2023-06-10T14:57:39;3.47;;;2.53;;
31348;SDS011;17976;48.480;11.946;2023-06-10T15:00:05;2.97;;;2.13;;
31348;SDS011;17976;48.480;11.946;2023-06-10T15:02:31;3.33;;;2.10;;
31348;SDS011;17976;48.480;11.946;2023-06-10T15:04:57;2.50;;;2.30;;
31348;SDS011;17976;48.480;11.946;2023-06-10T15:07:23;5.05;;;2.47;;
31348;SDS011;17976;48.480;11.946;2023-06-10T15:09:49;2.15;;;1.95;;
31348;SDS011;17976;48.480;11.946;2023-06-10T15:12:15;2.95;;;2.22;;
31348;SDS011;17976;48.480;11.946;2023-06-10T15:14:41;2.80;;;2.40;;
31348;SDS011;17976;48.480;11.946;2023-06-10T15:17:07;2.67;;;2.25;;
31348;SDS011;17976;48.480;11.946;2023-06-10T15:19:33;3.15;;;2.55;;
31348;SDS011;17976;48.480;11.946;2023-06-10T15:21:59;3.90;;;2.80;;
31348;SDS011;17976;48.480;11.946;2023-06-10T15:24:25;3.13;;;2.70;;
31348;SDS011;17976;48.480;11.946;2023-06-10T15:26:51;4.68;;;2.50;;
31348;SDS011;17976;48.480;11.946;2023-06-10T15:29:17;3.63;;;2.28;;
31348;SDS011;17976;48.480;11.946;2023-06-10T15:31:43;2.58;;;2.38;;
31348;SDS011;17976;48.480;11.946;2023-06-10T15:34:09;3.20;;;2.20;;
31348;SDS011;17976;48.480;11.946;2023-06-10T15:36:35;2.97;;;2.67;;
31348;SDS011;17976;48.480;11.946;2023-06-10T15:39:02;4.78;;;2.42;;
31348;SDS011;17976;48.480;11.946;2023-06-10T15:41:29;3.20;;;2.80;;
31348;SDS011;17976;48.480;11.946;2023-06-10T15:43:55;3.15;;;2.78;;
31348;SDS011;17976;48.480;11.946;2023-06-10T15:46:24;4.22;;;3.13;;
31348;SDS011;17976;48.480;11.946;2023-06-10T15:48:50;3.03;;;2.72;;
31348;SDS011;17976;48.480;11.946;2023-06-10T15:51:18;3.40;;;2.42;;
31348;SDS011;17976;48.480;11.946;2023-06-10T15:53:44;2.78;;;2.55;;
31348;SDS011;17976;48.480;11.946;2023-06-10T15:56:11;3.50;;;2.72;;
31348;SDS011;17976;48.480;11.946;2023-06-10T15:58:37;4.07;;;3.28;;
31348;SDS011;17976;48.480;11.946;2023-06-10T16:01:03;3.05;;;2.75;;
31348;SDS011;17976;48.480;11.946;2023-06-10T16:03:30;4.47;;;3.28;;
31348;SDS011;17976;48.480;11.946;2023-06-10T16:05:56;4.20;;;3.42;;
31348;SDS011;17976;48.480;11.946;2023-06-10T16:08:22;4.03;;;3.58;;
31348;SDS011;17976;48.480;11.946;2023-06-10T16:10:48;4.80;;;3.22;;
31348;SDS011;17976;48.480;11.946;2023-06-10T16:13:14;3.53;;;3.10;;
31348;SDS011;17976;48.480;11.946;2023-06-10T16:15:41;4.93;;;3.17;;
31348;SDS011;17976;48.480;11.946;2023-06-10T16:18:07;7.32;;;3.97;;
31348;SDS011;17976;48.480;11.946;2023-06-10T16:20:33;4.32;;;3.40;;
31348;SDS011;17976;48.480;11.946;2023-06-10T16:23:00;4.05;;;3.35;;
31348;SDS011;17976;48.480;11.946;2023-06-10T16:25:26;4.45;;;3.90;;
31348;SDS011;17976;48.480;11.946;2023-06-10T16:27:52;3.50;;;3.20;;
31348;SDS011;17976;48.480;11.946;2023-06-10T16:30:18;4.00;;;3.60;;
31348;SDS011;17976;48.480;11.946;2023-06-10T16:32:44;4.85;;;3.22;;
31348;SDS011;17976;48.480;11.946;2023-06-10T16:35:10;4.53;;;3.17;;
31348;SDS011;17976;48.480;11.946;2023-06-10T16:37:36;5.05;;;3.60;;
31348;SDS011;17976;48.480;11.946;2023-06-10T16:40:02;3.80;;;3.42;;
31348;SDS011;17976;48.480;11.946;2023-06-10T16:42:28;4.10;;;3.50;;
31348;SDS011;17976;48.480;11.946;2023-06-10T16:44:54;3.70;;;3.10;;
31348;SDS011;17976;48.480;11.946;2023-06-10T16:47:20;4.47;;;3.53;;
31348;SDS011;17976;48.480;11.946;2023-06-10T16:49:46;3.85;;;3.17;;
31348;SDS011;17976;48.480;11.946;2023-06-10T16:52:12;4.18;;;3.15;;
31348;SDS011;17976;48.480;11.946;2023-06-10T16:54:38;3.70;;;3.33;;
31348;SDS011;17976;48.480;11.946;2023-06-10T16:57:05;4.22;;;3.15;;
31348;SDS011;17976;48.480;11.946;2023-06-10T16:59:31;6.00;;;3.30;;
31348;SDS011;17976;48.480;11.946;2023-06-10T17:01:57;4.07;;;2.70;;
31348;SDS011;17976;48.480;11.946;2023-06-10T17:04:23;4.57;;;3.20;;
31348;SDS011;17976;48.480;11.946;2023-06-10T17:06:49;3.38;;;2.83;;
31348;SDS011;17976;48.480;11.946;2023-06-10T17:09:15;4.53;;;3.20;;
31348;SDS011;17976;48.480;11.946;2023-06-10T17:11:42;3.88;;;2.60;;
31348;SDS011;17976;48.480;11.946;2023-06-10T17:14:08;8.20;;;3.33;;
31348;SDS011;17976;48.480;11.946;2023-06-10T17:16:34;4.15;;;2.60;;
31348;SDS011;17976;48.480;11.946;2023-06-10T17:19:00;4.88;;;3.17;;
31348;SDS011;17976;48.480;11.946;2023-06-10T17:21:26;6.22;;;3.30;;
31348;SDS011;17976;48.480;11.946;2023-06-10T17:23:52;4.30;;;3.13;;
31348;SDS011;17976;48.480;11.946;2023-06-10T17:26:18;6.05;;;3.50;;
31348;SDS011;17976;48.480;11.946;2023-06-10T17:28:44;5.82;;;3.45;;
31348;SDS011;17976;48.480;11.946;2023-06-10T17:31:10;4.13;;;2.83;;
31348;SDS011;17976;48.480;11.946;2023-06-10T17:33:36;4.63;;;3.70;;
31348;SDS011;17976;48.480;11.946;2023-06-10T17:36:02;3.92;;;3.63;;
31348;SDS011;17976;48.480;11.946;2023-06-10T17:38:28;4.15;;;3.70;;
31348;SDS011;17976;48.480;11.946;2023-06-10T17:40:54;4.43;;;3.65;;
31348;SDS011;17976;48.480;11.946;2023-06-10T17:43:21;8.75;;;3.70;;
31348;SDS011;17976;48.480;11.946;2023-06-10T17:45:47;5.32;;;3.85;;
31348;SDS011;17976;48.480;11.946;2023-06-10T17:48:21;4.13;;;3.65;;
31348;SDS011;17976;48.480;11.946;2023-06-10T17:50:47;5.15;;;4.00;;
31348;SDS011;17976;48.480;11.946;2023-06-10T17:53:13;5.55;;;3.70;;
31348;SDS011;17976;48.480;11.946;2023-06-10T17:55:39;5.50;;;3.70;;
31348;SDS011;17976;48.480;11.946;2023-06-10T17:58:05;5.47;;;4.10;;
31348;SDS011;17976;48.480;11.946;2023-06-10T18:00:31;4.85;;;3.90;;
31348;SDS011;17976;48.480;11.946;2023-06-10T18:02:57;6.75;;;4.30;;
31348;SDS011;17976;48.480;11.946;2023-06-10T18:05:23;6.50;;;3.80;;
31348;SDS011;17976;48.480;11.946;2023-06-10T18:07:49;4.97;;;4.47;;
31348;SDS011;17976;48.480;11.946;2023-06-10T18:10:15;5.50;;;3.67;;
31348;SDS011;17976;48.480;11.946;2023-06-10T18:12:41;5.07;;;4.35;;
31348;SDS011;17976;48.480;11.946;2023-06-10T18:15:07;6.28;;;4.32;;
31348;SDS011;17976;48.480;11.946;2023-06-10T18:17:33;6.18;;;4.30;;
31348;SDS011;17976;48.480;11.946;2023-06-10T18:20:00;6.80;;;4.57;;
31348;SDS011;17976;48.480;11.946;2023-06-10T18:22:26;6.03;;;4.65;;
31348;SDS011;17976;48.480;11.946;2023-06-10T18:24:52;5.38;;;4.47;;
31348;SDS011;17976;48.480;11.946;2023-06-10T18:27:18;6.22;;;4.57;;
31348;SDS011;17976;48.480;11.946;2023-06-10T18:29:44;7.93;;;4.57;;
31348;SDS011;17976;48.480;11.946;2023-06-10T18:32:10;5.43;;;4.72;;
31348;SDS011;17976;48.480;11.946;2023-06-10T18:34:36;5.22;;;4.72;;
31348;SDS011;17976;48.480;11.946;2023-06-10T18:37:02;10.82;;;4.88;;
31348;SDS011;17976;48.480;11.946;2023-06-10T18:39:29;7.18;;;5.00;;
31348;SDS011;17976;48.480;11.946;2023-06-10T18:41:55;6.07;;;4.72;;
31348;SDS011;17976;48.480;11.946;2023-06-10T18:44:21;8.57;;;5.30;;
31348;SDS011;17976;48.480;11.946;2023-06-10T18:46:47;8.40;;;5.13;;
31348;SDS011;17976;48.480;11.946;2023-06-10T18:49:13;7.22;;;5.43;;
31348;SDS011;17976;48.480;11.946;2023-06-10T18:51:39;10.90;;;4.82;;
31348;SDS011;17976;48.480;11.946;2023-06-10T18:54:05;6.03;;;4.53;;
31348;SDS011;17976;48.480;11.946;2023-06-10T18:56:31;8.35;;;4.97;;
31348;SDS011;17976;48.480;11.946;2023-06-10T18:58:57;5.53;;;4.70;;
31348;SDS011;17976;48.480;11.946;2023-06-10T19:01:23;5.82;;;4.50;;
31348;SDS011;17976;48.480;11.946;2023-06-10T19:03:49;7.20;;;4.72;;
31348;SDS011;17976;48.480;11.946;2023-06-10T19:06:15;6.35;;;4.50;;
31348;SDS011;17976;48.480;11.946;2023-06-10T19:08:41;6.60;;;4.57;;
31348;SDS011;17976;48.480;11.946;2023-06-10T19:11:07;7.55;;;4.80;;
31348;SDS011;17976;48.480;11.946;2023-06-10T19:13:33;6.07;;;4.72;;
31348;SDS011;17976;48.480;11.946;2023-06-10T19:15:59;7.07;;;4.75;;
31348;SDS011;17976;48.480;11.946;2023-06-10T19:18:25;5.38;;;4.68;;
31348;SDS011;17976;48.480;11.946;2023-06-10T19:20:51;7.43;;;4.65;;
31348;SDS011;17976;48.480;11.946;2023-06-10T19:23:17;6.75;;;5.18;;
31348;SDS011;17976;48.480;11.946;2023-06-10T19:25:43;7.82;;;4.53;;
31348;SDS011;17976;48.480;11.946;2023-06-10T19:28:09;6.15;;;4.38;;
31348;SDS011;17976;48.480;11.946;2023-06-10T19:30:35;6.03;;;4.25;;
31348;SDS011;17976;48.480;11.946;2023-06-10T19:33:01;4.63;;;4.18;;
31348;SDS011;17976;48.480;11.946;2023-06-10T19:35:27;4.63;;;3.80;;
31348;SDS011;17976;48.480;11.946;2023-06-10T19:37:53;6.60;;;4.65;;
31348;SDS011;17976;48.480;11.946;2023-06-10T19:40:19;9.93;;;4.32;;
31348;SDS011;17976;48.480;11.946;2023-06-10T19:42:46;6.43;;;3.78;;
31348;SDS011;17976;48.480;11.946;2023-06-10T19:45:12;6.22;;;3.10;;
31348;SDS011;17976;48.480;11.946;2023-06-10T19:47:38;4.65;;;3.83;;
31348;SDS011;17976;48.480;11.946;2023-06-10T19:50:04;4.60;;;3.60;;
31348;SDS011;17976;48.480;11.946;2023-06-10T19:52:30;4.30;;;3.83;;
31348;SDS011;17976;48.480;11.946;2023-06-10T19:54:57;4.65;;;3.78;;
31348;SDS011;17976;48.480;11.946;2023-06-10T19:57:23;4.90;;;3.30;;
31348;SDS011;17976;48.480;11.946;2023-06-10T19:59:49;4.80;;;3.10;;
